createdAt,value
2023-03-12T00:18:24.340Z,19.3
2023-03-12T00:48:24.368Z,19.2
2023-03-12T01:18:24.374Z,19.1
2023-03-12T01:48:24.323Z,19.1
2023-03-12T02:18:24.323Z,19.0
2023-03-12T02:48:24.351Z,19.0
2023-03-12T03:18:24.366Z,18.9
2023-03-12T03:48:24.368Z,18.8
2023-03-12T04:18:24.355Z,18.8
2023-03-12T04:48:24.339Z,18.7
2023-03-12T05:18:24.367Z,18.7
2023-03-12T05:48:24.355Z,19.0
2023-03-12T06:18:24.357Z,19.2
2023-03-12T06:48:24.455Z,19.4
2023-03-12T07:18:24.358Z,19.5
2023-03-12T07:48:24.373Z,19.6
2023-03-12T08:18:24.336Z,19.8
2023-03-12T08:48:24.329Z,20.1
2023-03-12T09:18:24.401Z,20.3
2023-03-12T09:48:24.327Z,20.3
2023-03-12T10:18:24.358Z,20.4
2023-03-12T10:48:24.365Z,20.4
2023-03-12T11:18:24.125Z,20.4
2023-03-12T11:48:24.335Z,20.4
2023-03-12T12:18:24.368Z,20.4
2023-03-12T12:48:24.338Z,20.4
2023-03-12T13:18:24.357Z,20.4
2023-03-12T13:48:24.310Z,20.4
2023-03-12T14:18:24.304Z,20.5
2023-03-12T14:48:24.339Z,20.6
2023-03-12T15:18:24.344Z,20.8
2023-03-12T15:48:24.323Z,20.5
2023-03-12T16:18:24.301Z,20.5
2023-03-12T16:48:24.354Z,20.5
2023-03-12T17:18:24.346Z,20.5
2023-03-12T17:48:24.052Z,20.5
2023-03-12T18:18:24.303Z,20.5
2023-03-12T18:48:24.306Z,20.5
2023-03-12T19:18:24.421Z,20.5
2023-03-12T19:48:24.313Z,20.4
2023-03-12T20:18:24.270Z,20.3
2023-03-12T20:48:24.392Z,20.2
2023-03-12T21:18:24.272Z,20.1
2023-03-12T21:48:24.350Z,20.0
2023-03-12T22:18:24.315Z,19.9
2023-03-12T22:48:24.368Z,19.8
2023-03-12T23:18:24.306Z,19.6
2023-03-12T23:48:24.283Z,19.6
